Time;durP1;ratioP1;P1;durP2;ratioP2;P2;SDS_P1;SDS_P2;PMS_P1;PMS_P2;Temp;Humidity;BMP_temperature;BMP_pressure;BME280_temperature;BME280_humidity;BME280_pressure;Samples;Min_cycle;Max_cycle;Signal;HPM_P1;HPM_P2
2021/12/26 00:01:52;;;;;;;5.40;4.90;;;6.60;99.90;;;;;;5053630;28;20240;-59
2021/12/26 00:04:19;;;;;;;5.93;5.23;;;6.40;99.90;;;;;;5052853;28;20216;-59
2021/12/26 00:06:46;;;;;;;5.50;4.90;;;6.40;99.90;;;;;;5053565;28;20236;-58
2021/12/26 00:09:13;;;;;;;5.53;5.03;;;6.40;99.90;;;;;;5053108;28;20225;-59
2021/12/26 00:11:39;;;;;;;5.70;5.20;;;6.40;99.90;;;;;;5053595;28;20205;-60
2021/12/26 00:14:06;;;;;;;6.07;4.80;;;6.40;99.90;;;;;;5053531;28;20209;-59
2021/12/26 00:16:33;;;;;;;5.47;4.73;;;6.40;99.90;;;;;;5053545;28;20263;-61
2021/12/26 00:19:01;;;;;;;5.10;4.60;;;6.40;99.90;;;;;;5053463;28;20205;-61
2021/12/26 00:21:28;;;;;;;4.93;4.43;;;6.50;99.90;;;;;;5052763;28;20696;-60
2021/12/26 00:23:57;;;;;;;5.00;4.50;;;6.70;99.90;;;;;;5053682;28;20214;-61
2021/12/26 00:26:23;;;;;;;5.73;4.40;;;6.90;99.90;;;;;;5053222;28;20226;-60
2021/12/26 00:28:50;;;;;;;4.77;4.33;;;7.20;99.90;;;;;;5053247;28;20210;-59
2021/12/26 00:31:17;;;;;;;5.20;4.33;;;7.10;99.90;;;;;;5052932;28;20263;-61
2021/12/26 00:33:45;;;;;;;4.70;4.30;;;7.20;99.90;;;;;;5053066;28;20206;-60
2021/12/26 00:36:14;;;;;;;4.40;4.00;;;7.30;99.90;;;;;;5052583;28;20280;-60
2021/12/26 00:38:41;;;;;;;4.40;3.97;;;7.30;99.90;;;;;;5053100;28;20206;-58
2021/12/26 00:41:07;;;;;;;4.27;3.80;;;7.50;99.90;;;;;;5052799;28;20201;-59
2021/12/26 00:43:34;;;;;;;4.40;3.40;;;7.50;99.90;;;;;;5053096;28;20205;-60
2021/12/26 00:46:01;;;;;;;3.80;3.50;;;7.50;99.90;;;;;;5052778;28;20221;-60
2021/12/26 00:48:28;;;;;;;3.40;3.10;;;7.50;99.90;;;;;;5052932;28;20683;-59
2021/12/26 00:50:55;;;;;;;4.40;4.00;;;7.50;99.90;;;;;;5052505;28;20226;-59
2021/12/26 00:53:23;;;;;;;3.27;2.93;;;7.50;99.90;;;;;;5053057;28;20413;-60
2021/12/26 00:55:50;;;;;;;3.70;3.23;;;7.40;99.90;;;;;;5052812;28;20225;-60
2021/12/26 00:58:17;;;;;;;3.60;2.80;;;7.40;99.90;;;;;;5053089;28;20213;-60
2021/12/26 01:00:47;;;;;;;3.93;3.13;;;7.40;99.90;;;;;;5052715;28;20202;-60
2021/12/26 01:03:15;;;;;;;3.30;3.00;;;7.30;99.90;;;;;;5052591;28;20201;-60
2021/12/26 01:05:47;;;;;;;3.23;2.93;;;7.30;99.90;;;;;;5052698;28;20256;-59
2021/12/26 01:08:16;;;;;;;3.07;2.77;;;6.90;99.90;;;;;;5053016;28;20214;-60
2021/12/26 01:10:50;;;;;;;3.40;2.77;;;7.00;99.90;;;;;;5052499;28;20233;-60
2021/12/26 01:13:24;;;;;;;3.33;3.03;;;7.10;99.90;;;;;;5052572;28;20263;-59
2021/12/26 01:15:54;;;;;;;2.90;2.70;;;7.30;99.90;;;;;;5051838;28;20224;-60
2021/12/26 01:18:20;;;;;;;3.00;2.70;;;7.40;99.90;;;;;;5052596;28;20687;-60
2021/12/26 01:20:52;;;;;;;3.00;2.80;;;7.30;99.90;;;;;;5052223;28;20212;-60
2021/12/26 01:23:21;;;;;;;3.30;3.00;;;7.20;99.90;;;;;;5052507;28;20259;-60
2021/12/26 01:25:51;;;;;;;3.27;2.97;;;7.10;99.90;;;;;;5052033;28;20720;-60
2021/12/26 01:28:19;;;;;;;2.97;2.67;;;7.10;99.90;;;;;;5052797;28;20255;-59
2021/12/26 01:30:46;;;;;;;3.10;2.80;;;7.20;99.90;;;;;;5052467;28;20232;-60
2021/12/26 01:33:16;;;;;;;3.73;3.20;;;7.20;99.90;;;;;;5052445;28;20213;-60
2021/12/26 01:35:43;;;;;;;3.50;3.20;;;7.30;99.90;;;;;;5052515;28;20237;-59
2021/12/26 01:38:13;;;;;;;3.30;3.00;;;7.30;99.90;;;;;;5051987;28;20201;-59
2021/12/26 01:40:43;;;;;;;3.70;2.93;;;7.40;99.90;;;;;;5052168;28;20657;-59
2021/12/26 01:43:11;;;;;;;6.07;3.40;;;7.40;99.90;;;;;;5052090;28;20209;-59
2021/12/26 01:45:38;;;;;;;7.50;5.53;;;7.50;99.90;;;;;;5051989;28;20228;-60
2021/12/26 01:48:06;;;;;;;4.20;3.67;;;7.60;99.90;;;;;;5051976;28;20267;-58
2021/12/26 01:50:34;;;;;;;3.73;3.43;;;7.60;99.90;;;;;;5051533;28;20226;-59
2021/12/26 01:53:01;;;;;;;5.60;3.50;;;7.50;99.90;;;;;;5052175;28;20209;-58
2021/12/26 01:55:38;;;;;;;4.03;3.40;;;7.60;99.90;;;;;;5051768;28;20747;-60
2021/12/26 01:58:07;;;;;;;4.57;3.13;;;7.70;99.90;;;;;;5052380;28;20205;-59
2021/12/26 02:00:36;;;;;;;3.10;2.77;;;7.80;99.90;;;;;;5051434;28;20213;-59
2021/12/26 02:03:03;;;;;;;3.60;3.30;;;7.70;99.90;;;;;;5051653;28;20271;-58
2021/12/26 02:05:30;;;;;;;3.33;3.03;;;7.70;99.90;;;;;;5051570;28;20225;-59
2021/12/26 02:07:57;;;;;;;3.47;3.17;;;7.80;99.90;;;;;;5051543;28;20632;-59
2021/12/26 02:10:23;;;;;;;3.50;3.20;;;7.90;99.90;;;;;;5051511;28;20238;-59
2021/12/26 02:12:50;;;;;;;3.53;3.23;;;8.00;99.90;;;;;;5051692;28;20202;-59
2021/12/26 02:15:17;;;;;;;3.40;3.10;;;7.90;99.90;;;;;;5051556;28;20637;-59
2021/12/26 02:17:45;;;;;;;3.50;3.20;;;7.70;99.90;;;;;;5051464;28;20216;-59
2021/12/26 02:20:29;;;;;;;6.03;4.60;;;7.70;99.90;;;;;;5051217;28;20208;-59
2021/12/26 02:23:01;;;;;;;4.93;4.43;;;7.80;99.90;;;;;;5051735;28;20847;-59
2021/12/26 02:27:30;;;;;;;4.13;3.73;;;7.80;99.90;;;;;;5051409;28;20585;-59
2021/12/26 02:28:18;;;;;;;4.43;4.03;;;7.80;99.90;;;;;;5055152;28;20213;-59
2021/12/26 02:30:45;;;;;;;4.53;3.80;;;7.80;99.90;;;;;;5054718;28;20222;-59
2021/12/26 02:33:12;;;;;;;4.03;3.63;;;7.90;99.90;;;;;;5055731;28;20202;-59
2021/12/26 02:35:41;;;;;;;3.80;3.43;;;7.90;99.90;;;;;;5055265;28;20320;-59
2021/12/26 02:38:08;;;;;;;5.80;3.70;;;7.70;99.90;;;;;;5055168;28;20205;-59
2021/12/26 02:40:35;;;;;;;4.10;3.70;;;7.40;99.90;;;;;;5054644;28;20621;-59
2021/12/26 02:43:03;;;;;;;3.73;3.33;;;7.40;99.90;;;;;;5054803;28;20625;-59
2021/12/26 02:45:31;;;;;;;4.30;3.90;;;7.40;99.90;;;;;;5054691;28;20713;-59
2021/12/26 02:47:58;;;;;;;4.23;3.83;;;7.40;99.90;;;;;;5054856;28;20216;-59
2021/12/26 02:50:26;;;;;;;4.20;3.70;;;7.50;99.90;;;;;;5054277;28;20222;-58
2021/12/26 02:52:56;;;;;;;5.00;4.50;;;7.60;99.90;;;;;;5054736;28;20210;-58
2021/12/26 02:55:24;;;;;;;5.07;4.23;;;7.60;99.90;;;;;;5054548;28;20229;-58
2021/12/26 02:57:53;;;;;;;5.83;4.87;;;7.70;99.90;;;;;;5054390;28;20653;-58
2021/12/26 03:00:23;;;;;;;4.57;3.90;;;7.80;99.90;;;;;;5054467;28;20217;-58
2021/12/26 03:02:54;;;;;;;4.60;3.87;;;7.90;99.90;;;;;;5054686;28;20205;-58
2021/12/26 03:05:22;;;;;;;4.30;3.90;;;7.70;99.90;;;;;;5054582;28;20226;-58
2021/12/26 03:07:49;;;;;;;4.27;3.87;;;7.50;99.90;;;;;;5054550;28;20210;-58
2021/12/26 03:10:22;;;;;;;4.57;3.70;;;7.40;99.90;;;;;;5054397;28;20218;-58
2021/12/26 03:12:49;;;;;;;4.00;3.60;;;7.50;99.90;;;;;;5054605;28;20882;-59
2021/12/26 03:15:16;;;;;;;4.17;3.77;;;7.50;99.90;;;;;;5054519;28;20580;-58
2021/12/26 03:17:43;;;;;;;4.00;3.60;;;7.40;99.90;;;;;;5054569;28;20263;-58
2021/12/26 03:20:11;;;;;;;4.10;3.70;;;7.40;99.90;;;;;;5054031;28;20209;-59
2021/12/26 03:22:38;;;;;;;4.70;4.23;;;7.50;99.90;;;;;;5054147;28;20632;-58
2021/12/26 03:25:11;;;;;;;4.60;4.10;;;7.60;99.90;;;;;;5054024;28;20210;-58
2021/12/26 03:27:39;;;;;;;5.27;4.77;;;7.60;99.90;;;;;;5054027;28;20619;-58
2021/12/26 03:30:07;;;;;;;4.80;4.27;;;7.70;99.90;;;;;;5054066;28;20222;-59
2021/12/26 03:32:34;;;;;;;7.47;4.17;;;7.80;99.90;;;;;;5053942;28;20669;-58
2021/12/26 03:35:01;;;;;;;4.50;4.10;;;7.80;99.90;;;;;;5053707;28;20201;-58
2021/12/26 03:37:28;;;;;;;4.83;4.27;;;7.70;99.90;;;;;;5053732;28;20645;-58
2021/12/26 03:39:55;;;;;;;4.47;4.07;;;7.70;99.90;;;;;;5054110;28;20213;-58
2021/12/26 03:42:22;;;;;;;5.20;4.70;;;7.80;99.90;;;;;;5054010;28;20267;-58
2021/12/26 03:44:51;;;;;;;4.40;4.00;;;7.90;99.90;;;;;;5054082;28;20255;-58
2021/12/26 03:47:18;;;;;;;4.70;4.20;;;7.90;99.90;;;;;;5054005;28;20209;-58
2021/12/26 03:49:47;;;;;;;4.63;4.10;;;7.60;99.90;;;;;;5053694;28;20209;-58
2021/12/26 03:52:14;;;;;;;4.40;4.00;;;7.40;99.90;;;;;;5053627;28;20230;-59
2021/12/26 03:54:40;;;;;;;5.00;4.50;;;7.40;99.90;;;;;;5053496;28;20725;-59
2021/12/26 03:57:07;;;;;;;5.03;4.53;;;7.20;99.90;;;;;;5053507;28;20225;-59
2021/12/26 03:59:34;;;;;;;4.50;4.10;;;7.20;99.90;;;;;;5053613;28;20216;-59
2021/12/26 04:02:02;;;;;;;5.03;4.47;;;7.10;99.90;;;;;;5053178;28;20209;-58
2021/12/26 04:04:29;;;;;;;5.10;4.60;;;7.10;99.90;;;;;;5053321;28;20252;-58
2021/12/26 04:06:55;;;;;;;5.20;4.70;;;7.20;99.90;;;;;;5053410;28;20229;-59
2021/12/26 04:09:22;;;;;;;5.40;4.90;;;7.20;99.90;;;;;;5053459;28;20300;-59
2021/12/26 04:11:49;;;;;;;5.10;4.60;;;7.30;99.90;;;;;;5052957;28;20225;-59
2021/12/26 04:14:17;;;;;;;5.47;4.97;;;7.20;99.90;;;;;;5053267;28;20206;-59
2021/12/26 04:16:44;;;;;;;4.93;4.43;;;7.20;99.90;;;;;;5052890;28;20237;-59
2021/12/26 04:19:12;;;;;;;5.57;5.00;;;7.20;99.90;;;;;;5052921;28;20212;-59
2021/12/26 04:21:39;;;;;;;5.27;4.77;;;7.10;99.90;;;;;;5053132;28;20252;-59
2021/12/26 04:24:06;;;;;;;5.13;4.63;;;7.10;99.90;;;;;;5053137;28;20233;-59
2021/12/26 04:26:33;;;;;;;6.90;5.03;;;7.10;99.90;;;;;;5052832;28;20254;-59
2021/12/26 04:29:00;;;;;;;5.63;5.10;;;7.10;99.90;;;;;;5052885;28;20212;-59
2021/12/26 04:31:27;;;;;;;5.40;4.90;;;7.00;99.90;;;;;;5052560;28;20753;-59
2021/12/26 04:33:54;;;;;;;6.07;5.40;;;7.00;99.90;;;;;;5052755;28;20723;-59
2021/12/26 04:36:22;;;;;;;5.83;5.23;;;7.00;99.90;;;;;;5052583;28;20640;-59
2021/12/26 04:38:49;;;;;;;6.30;5.70;;;7.00;99.90;;;;;;5053008;28;20296;-59
2021/12/26 04:41:16;;;;;;;6.83;5.33;;;7.00;99.90;;;;;;5052641;28;20205;-59
2021/12/26 04:43:43;;;;;;;6.07;5.47;;;7.00;99.90;;;;;;5052620;28;20214;-59
2021/12/26 04:46:11;;;;;;;6.70;5.63;;;6.90;99.90;;;;;;5052422;28;20226;-59
2021/12/26 04:48:41;;;;;;;6.23;5.63;;;7.00;99.90;;;;;;5052189;28;20217;-59
2021/12/26 04:51:09;;;;;;;6.60;5.80;;;7.10;99.90;;;;;;5052382;28;20240;-59
2021/12/26 04:53:39;;;;;;;6.20;5.57;;;7.00;99.90;;;;;;5052723;28;20201;-59
2021/12/26 04:56:07;;;;;;;6.30;5.47;;;7.00;99.90;;;;;;5052428;28;20232;-59
2021/12/26 04:58:34;;;;;;;7.93;5.80;;;7.10;99.90;;;;;;5052710;28;20259;-59
2021/12/26 05:01:02;;;;;;;7.00;6.00;;;7.20;99.90;;;;;;5052082;28;20575;-59
2021/12/26 05:03:30;;;;;;;6.17;5.57;;;7.40;99.90;;;;;;5052529;28;20210;-59
2021/12/26 05:05:57;;;;;;;6.87;5.80;;;7.40;99.90;;;;;;5052369;28;20234;-59
2021/12/26 05:08:23;;;;;;;6.50;5.90;;;7.50;99.90;;;;;;5052270;28;20677;-59
2021/12/26 05:10:51;;;;;;;5.90;5.30;;;7.60;99.90;;;;;;5051781;28;20708;-59
2021/12/26 05:13:18;;;;;;;5.93;5.33;;;7.70;99.90;;;;;;5052036;28;20209;-59
2021/12/26 05:15:45;;;;;;;6.70;5.60;;;7.80;99.90;;;;;;5052387;28;20229;-59
2021/12/26 05:18:11;;;;;;;6.07;5.47;;;7.90;99.90;;;;;;5052329;28;20205;-59
2021/12/26 05:20:38;;;;;;;7.03;5.43;;;7.90;99.90;;;;;;5052012;28;20205;-59
2021/12/26 05:23:05;;;;;;;6.20;5.40;;;7.90;99.90;;;;;;5052182;28;20209;-59
2021/12/26 05:25:32;;;;;;;6.23;5.20;;;7.80;99.90;;;;;;5052073;28;20312;-60
2021/12/26 05:28:00;;;;;;;6.47;5.83;;;7.80;99.90;;;;;;5051930;28;20221;-59
2021/12/26 05:30:28;;;;;;;6.53;5.27;;;7.60;99.90;;;;;;5051856;28;20214;-59
2021/12/26 05:32:54;;;;;;;6.27;5.63;;;7.40;99.90;;;;;;5052304;28;20209;-59
2021/12/26 05:35:22;;;;;;;6.57;5.83;;;7.30;99.90;;;;;;5051737;28;20238;-59
2021/12/26 05:37:49;;;;;;;7.00;5.90;;;7.20;99.90;;;;;;5052165;28;20232;-59
2021/12/26 05:40:17;;;;;;;5.87;5.27;;;7.20;99.90;;;;;;5051741;28;20209;-59
2021/12/26 05:42:44;;;;;;;6.50;5.40;;;7.00;99.90;;;;;;5051983;28;20680;-59
2021/12/26 05:45:13;;;;;;;7.17;5.27;;;6.80;99.90;;;;;;5051882;28;20229;-59
2021/12/26 05:47:40;;;;;;;7.30;5.50;;;6.70;99.90;;;;;;5051996;28;20205;-59
2021/12/26 05:50:08;;;;;;;8.33;6.57;;;6.80;99.90;;;;;;5051885;28;20201;-59
2021/12/26 05:52:35;;;;;;;12.17;9.57;;;6.90;99.90;;;;;;5051543;28;20275;-59
2021/12/26 05:55:02;;;;;;;7.27;6.20;;;7.10;99.90;;;;;;5051616;28;20205;-59
2021/12/26 05:57:28;;;;;;;17.80;11.53;;;7.30;99.90;;;;;;5051967;28;20220;-60
2021/12/26 05:59:55;;;;;;;6.97;6.27;;;7.60;99.90;;;;;;5052435;28;20206;-59
2021/12/26 06:02:23;;;;;;;9.30;6.70;;;7.80;99.90;;;;;;5055547;28;20202;-60
2021/12/26 06:04:50;;;;;;;8.53;6.80;;;7.90;99.90;;;;;;5056175;28;20255;-60
2021/12/26 06:07:17;;;;;;;10.30;8.37;;;8.10;99.90;;;;;;5057269;28;20259;-60
2021/12/26 06:09:44;;;;;;;7.23;6.53;;;8.20;99.90;;;;;;5055966;28;20263;-59
2021/12/26 06:12:11;;;;;;;6.93;6.23;;;8.30;99.90;;;;;;5055404;28;20255;-60
2021/12/26 06:14:37;;;;;;;9.60;6.60;;;8.30;99.90;;;;;;5055564;28;20213;-59
2021/12/26 06:17:05;;;;;;;8.60;6.40;;;8.40;99.90;;;;;;5055364;28;20222;-59
2021/12/26 06:19:33;;;;;;;17.13;12.47;;;8.40;99.90;;;;;;5055337;28;20209;-60
2021/12/26 06:22:00;;;;;;;9.13;7.20;;;8.50;99.90;;;;;;5055484;28;20259;-59
2021/12/26 06:24:27;;;;;;;14.33;10.17;;;8.40;99.90;;;;;;5055648;28;20209;-60
2021/12/26 06:26:53;;;;;;;7.90;6.40;;;8.50;99.90;;;;;;5055155;28;20610;-60
2021/12/26 06:29:20;;;;;;;6.50;5.80;;;8.50;99.90;;;;;;5055667;28;20235;-60
2021/12/26 06:31:47;;;;;;;7.97;6.83;;;8.40;99.90;;;;;;5054969;28;20221;-59
2021/12/26 06:34:14;;;;;;;7.77;6.40;;;8.30;99.90;;;;;;5055030;28;20232;-59
2021/12/26 06:36:42;;;;;;;7.07;6.13;;;8.30;99.90;;;;;;5055122;28;20642;-59
2021/12/26 06:39:09;;;;;;;7.10;6.40;;;8.30;99.90;;;;;;5055301;28;20213;-60
2021/12/26 06:41:38;;;;;;;8.40;6.57;;;8.20;99.90;;;;;;5055141;28;20205;-59
2021/12/26 06:44:07;;;;;;;6.80;6.10;;;8.20;99.90;;;;;;5055086;28;20212;-60
2021/12/26 06:46:34;;;;;;;13.47;10.27;;;8.20;99.90;;;;;;5054914;28;20225;-59
2021/12/26 06:49:01;;;;;;;7.90;6.70;;;8.10;99.90;;;;;;5054758;28;20232;-60
2021/12/26 06:51:28;;;;;;;10.13;7.87;;;8.10;99.90;;;;;;5054622;28;20286;-60
2021/12/26 06:53:56;;;;;;;7.57;6.40;;;8.20;99.90;;;;;;5054662;28;20673;-60
2021/12/26 06:56:23;;;;;;;6.43;5.77;;;8.20;99.90;;;;;;5054627;28;20721;-59
2021/12/26 06:58:49;;;;;;;7.57;5.90;;;8.20;99.90;;;;;;5054672;28;20218;-59
2021/12/26 07:01:16;;;;;;;7.63;6.70;;;8.10;99.90;;;;;;5054394;28;20202;-59
2021/12/26 07:03:43;;;;;;;6.70;6.00;;;8.10;99.90;;;;;;5054638;28;20634;-60
2021/12/26 07:06:10;;;;;;;8.40;7.33;;;8.20;99.90;;;;;;5054579;28;20241;-59
2021/12/26 07:08:37;;;;;;;7.70;6.73;;;8.30;99.90;;;;;;5054679;28;20205;-60
2021/12/26 07:11:05;;;;;;;7.60;6.80;;;8.40;99.90;;;;;;5054503;28;20212;-59
2021/12/26 07:13:32;;;;;;;10.10;6.80;;;8.40;99.90;;;;;;5053841;28;20206;-59
2021/12/26 07:15:58;;;;;;;7.57;5.97;;;8.50;99.90;;;;;;5054324;28;20240;-60
2021/12/26 07:18:25;;;;;;;8.33;7.07;;;8.50;99.90;;;;;;5054064;28;20688;-60
2021/12/26 07:20:52;;;;;;;7.63;6.83;;;8.50;99.90;;;;;;5054269;28;20630;-59
2021/12/26 07:23:18;;;;;;;6.87;6.17;;;8.60;99.90;;;;;;5054244;28;20339;-59
2021/12/26 07:25:45;;;;;;;8.17;7.37;;;8.60;99.90;;;;;;5054215;28;20741;-60
2021/12/26 07:28:13;;;;;;;8.30;6.70;;;8.50;99.90;;;;;;5053989;28;20566;-59
2021/12/26 07:30:40;;;;;;;7.13;6.43;;;8.50;99.90;;;;;;5054058;28;20209;-59
2021/12/26 07:33:06;;;;;;;8.20;7.17;;;8.50;99.90;;;;;;5054192;28;20237;-57
2021/12/26 07:35:33;;;;;;;8.97;6.90;;;8.70;99.90;;;;;;5076744;23;20279;-57
2021/12/26 07:38:00;;;;;;;7.50;6.73;;;8.70;99.90;;;;;;5062105;28;20197;-58
2021/12/26 07:40:27;;;;;;;7.53;6.70;;;8.70;99.90;;;;;;5072855;28;20250;-58
2021/12/26 07:42:54;;;;;;;8.30;7.50;;;8.80;99.90;;;;;;5073842;28;20244;-58
2021/12/26 07:45:22;;;;;;;7.60;6.77;;;8.60;99.90;;;;;;5073651;28;20216;-58
2021/12/26 07:47:48;;;;;;;7.77;6.97;;;8.30;99.90;;;;;;5073939;28;20643;-58
2021/12/26 07:50:15;;;;;;;7.77;6.80;;;8.30;99.90;;;;;;5073752;28;20201;-57
2021/12/26 07:52:44;;;;;;;8.93;7.47;;;8.40;99.90;;;;;;5073372;28;20227;-62
2021/12/26 07:55:13;;;;;;;8.03;6.83;;;8.50;99.90;;;;;;5073542;28;20644;-59
2021/12/26 07:57:40;;;;;;;8.07;7.27;;;8.20;99.90;;;;;;5073590;28;20212;-56
2021/12/26 08:00:08;;;;;;;14.13;12.23;;;8.30;99.90;;;;;;5073346;28;20204;-56
2021/12/26 08:02:38;;;;;;;11.60;9.87;;;8.40;99.90;;;;;;5073463;28;20204;-56
2021/12/26 08:05:06;;;;;;;8.20;7.33;;;8.50;99.90;;;;;;5073398;28;20238;-55
2021/12/26 08:07:34;;;;;;;8.77;7.73;;;8.40;99.90;;;;;;5073435;28;20235;-58
2021/12/26 08:10:00;;;;;;;8.77;7.13;;;8.50;99.90;;;;;;5073148;28;20664;-58
2021/12/26 08:12:27;;;;;;;84.60;67.77;;;8.60;99.90;;;;;;5072860;28;20224;-56
2021/12/26 08:14:54;;;;;;;11.70;9.00;;;8.60;99.90;;;;;;5073262;28;20201;-56
2021/12/26 08:17:20;;;;;;;9.43;7.90;;;8.60;99.90;;;;;;5073141;28;20666;-57
2021/12/26 08:19:48;;;;;;;8.20;7.30;;;8.70;99.90;;;;;;5073097;28;20204;-57
2021/12/26 08:22:15;;;;;;;8.20;7.40;;;8.30;99.90;;;;;;5072927;28;20208;-56
2021/12/26 08:24:42;;;;;;;9.80;7.80;;;8.10;99.90;;;;;;5071976;28;20204;-57
2021/12/26 08:27:09;;;;;;;8.90;7.70;;;8.10;99.90;;;;;;5072646;28;20238;-56
2021/12/26 08:29:35;;;;;;;8.93;7.60;;;8.20;99.90;;;;;;5072719;28;20205;-57
2021/12/26 08:32:02;;;;;;;10.03;7.73;;;8.30;99.90;;;;;;5072591;28;20220;-56
2021/12/26 08:34:29;;;;;;;12.03;8.00;;;8.40;99.90;;;;;;5072886;28;20209;-57
2021/12/26 08:37:01;;;;;;;8.83;7.93;;;8.50;99.90;;;;;;5072640;28;20239;-56
2021/12/26 08:39:28;;;;;;;10.43;8.07;;;8.20;99.90;;;;;;5072585;28;20270;-57
2021/12/26 08:41:56;;;;;;;14.20;12.70;;;8.10;99.90;;;;;;5072594;28;20201;-57
2021/12/26 08:44:23;;;;;;;46.27;36.40;;;8.20;99.90;;;;;;5072584;28;20212;-55
2021/12/26 08:46:50;;;;;;;13.10;10.40;;;8.30;99.90;;;;;;5072513;28;20370;-57
2021/12/26 08:49:17;;;;;;;12.47;7.90;;;8.50;99.90;;;;;;5072714;28;20213;-56
2021/12/26 08:51:44;;;;;;;9.03;8.00;;;8.60;99.90;;;;;;5072141;28;20204;-57
2021/12/26 08:54:13;;;;;;;13.73;8.07;;;8.80;99.90;;;;;;5072257;28;20263;-56
2021/12/26 08:56:41;;;;;;;8.83;7.93;;;8.90;99.90;;;;;;5072264;28;20607;-57
2021/12/26 08:59:08;;;;;;;8.47;7.30;;;8.90;99.90;;;;;;5072441;28;20205;-58
2021/12/26 09:01:36;;;;;;;9.10;7.77;;;9.00;99.90;;;;;;5072550;28;20201;-55
2021/12/26 09:04:03;;;;;;;9.13;7.80;;;9.10;99.90;;;;;;5072298;28;20209;-56
2021/12/26 09:06:30;;;;;;;9.07;7.97;;;9.20;99.90;;;;;;5072154;28;20278;-58
2021/12/26 09:08:57;;;;;;;9.33;8.00;;;9.30;99.90;;;;;;5072374;28;20220;-56
2021/12/26 09:11:25;;;;;;;8.93;8.00;;;9.40;99.90;;;;;;5072202;28;20220;-56
2021/12/26 09:13:52;;;;;;;10.50;9.13;;;9.60;99.90;;;;;;5071958;28;20228;-57
2021/12/26 09:16:19;;;;;;;9.10;7.77;;;9.80;99.90;;;;;;5072040;28;20248;-56
2021/12/26 09:18:46;;;;;;;6.73;5.13;;;9.80;99.90;;;;;;5071968;28;20262;-56
2021/12/26 09:21:12;;;;;;;6.47;5.60;;;9.70;99.90;;;;;;5071677;28;20703;-56
2021/12/26 09:23:39;;;;;;;6.90;6.20;;;9.50;99.90;;;;;;5072308;28;20207;-56
2021/12/26 09:26:06;;;;;;;5.87;5.27;;;9.50;99.90;;;;;;5072090;28;20735;-56
2021/12/26 09:28:36;;;;;;;5.33;4.80;;;9.50;99.90;;;;;;5072180;28;20212;-56
2021/12/26 09:31:04;;;;;;;5.60;4.80;;;9.50;99.90;;;;;;5071764;28;20519;-57
2021/12/26 09:33:30;;;;;;;5.23;4.30;;;9.60;99.90;;;;;;5071626;28;20700;-56
2021/12/26 09:35:57;;;;;;;5.87;5.10;;;9.40;99.90;;;;;;5071676;28;20233;-56
2021/12/26 09:38:25;;;;;;;5.37;4.70;;;9.10;99.90;;;;;;5072126;28;20258;-56
2021/12/26 09:40:51;;;;;;;5.40;4.90;;;8.90;99.90;;;;;;5071558;28;20200;-56
2021/12/26 09:43:18;;;;;;;6.33;4.80;;;9.00;99.90;;;;;;5071738;28;20579;-56
2021/12/26 09:45:46;;;;;;;5.27;4.77;;;9.10;99.90;;;;;;5071904;28;20646;-56
2021/12/26 09:48:13;;;;;;;5.73;5.10;;;9.20;99.90;;;;;;5071536;28;20216;-56
2021/12/26 09:50:40;;;;;;;5.93;4.90;;;9.30;99.90;;;;;;5071734;28;20207;-56
2021/12/26 09:53:07;;;;;;;5.13;4.63;;;9.40;99.90;;;;;;5071526;28;20224;-56
2021/12/26 09:55:34;;;;;;;5.13;4.47;;;9.40;99.90;;;;;;5071607;28;20232;-56
2021/12/26 09:58:00;;;;;;;5.83;4.90;;;9.30;99.90;;;;;;5071754;28;20760;-56
2021/12/26 10:00:32;;;;;;;5.47;4.67;;;9.40;99.90;;;;;;5071442;28;20561;-56
2021/12/26 10:03:14;;;;;;;6.70;5.30;;;9.40;99.90;;;;;;5071428;28;20190;-56
2021/12/26 10:05:56;;;;;;;5.90;4.73;;;9.40;99.90;;;;;;5071575;28;20347;-56
2021/12/26 10:08:23;;;;;;;6.80;4.77;;;9.50;99.90;;;;;;5071571;28;20208;-56
2021/12/26 10:11:08;;;;;;;4.93;4.43;;;9.60;99.90;;;;;;5071285;28;20205;-56
2021/12/26 10:13:44;;;;;;;5.73;4.83;;;9.70;99.90;;;;;;5071813;28;20290;-56
2021/12/26 10:16:11;;;;;;;5.03;4.53;;;9.80;99.90;;;;;;5071622;28;20228;-56
2021/12/26 10:18:40;;;;;;;5.33;4.83;;;9.80;99.90;;;;;;5071895;28;20205;-56
2021/12/26 10:21:32;;;;;;;4.97;4.07;;;9.90;99.90;;;;;;5071379;28;20201;-56
2021/12/26 10:24:02;;;;;;;5.60;4.70;;;9.90;99.90;;;;;;5071510;28;20576;-56
2021/12/26 10:26:31;;;;;;;6.30;4.20;;;9.80;99.90;;;;;;5071331;28;20229;-56
2021/12/26 10:29:16;;;;;;;5.37;3.87;;;9.70;99.90;;;;;;5072030;28;20212;-56
2021/12/26 10:31:46;;;;;;;5.20;4.50;;;9.50;99.90;;;;;;5071183;28;20227;-56
2021/12/26 10:34:24;;;;;;;5.50;4.10;;;9.50;99.90;;;;;;5071696;28;20225;-56
2021/12/26 10:36:52;;;;;;;6.37;5.30;;;9.30;99.90;;;;;;5071486;28;20232;-57
2021/12/26 10:39:22;;;;;;;7.03;6.20;;;9.30;99.90;;;;;;5071771;28;20591;-55
2021/12/26 10:41:51;;;;;;;5.90;5.30;;;9.20;99.90;;;;;;5071197;28;20212;-56
2021/12/26 10:44:24;;;;;;;5.67;4.70;;;9.10;99.90;;;;;;5072065;28;20641;-57
2021/12/26 10:46:53;;;;;;;6.07;4.70;;;9.10;99.90;;;;;;5071520;28;20233;-56
2021/12/26 10:49:30;;;;;;;5.47;4.23;;;9.10;99.90;;;;;;5075111;28;20208;-57
2021/12/26 10:51:57;;;;;;;5.53;4.13;;;9.20;99.90;;;;;;5074737;28;20210;-57
2021/12/26 10:54:30;;;;;;;6.27;4.47;;;9.40;99.90;;;;;;5074692;28;20225;-56
2021/12/26 10:57:19;;;;;;;6.47;4.77;;;9.60;99.90;;;;;;5074665;28;20224;-56
2021/12/26 10:59:48;;;;;;;4.90;4.37;;;9.60;99.90;;;;;;5074878;28;20292;-56
2021/12/26 11:02:26;;;;;;;5.33;4.70;;;9.70;99.90;;;;;;5074341;28;20301;-57
2021/12/26 11:05:02;;;;;;;5.60;4.03;;;9.90;99.90;;;;;;5074533;28;20212;-57
2021/12/26 11:07:30;;;;;;;5.00;3.87;;;10.00;99.90;;;;;;5074262;28;20220;-57
2021/12/26 11:10:07;;;;;;;6.13;4.43;;;9.80;99.90;;;;;;5074544;28;20217;-56
2021/12/26 11:12:39;;;;;;;7.17;4.63;;;10.00;99.90;;;;;;5074333;28;20236;-57
2021/12/26 11:15:08;;;;;;;5.37;4.40;;;10.20;99.90;;;;;;5075329;28;20212;-56
2021/12/26 11:17:37;;;;;;;5.67;4.63;;;10.30;99.90;;;;;;5074037;28;20292;-57
2021/12/26 11:20:07;;;;;;;4.90;4.40;;;10.50;99.90;;;;;;5074391;28;20209;-57
2021/12/26 11:22:34;;;;;;;4.40;3.97;;;10.40;99.90;;;;;;5074375;28;20205;-58
2021/12/26 11:25:01;;;;;;;6.07;5.20;;;10.30;99.90;;;;;;5074575;28;20205;-57
2021/12/26 11:27:28;;;;;;;8.83;5.43;;;10.20;99.90;;;;;;5074206;28;20647;-57
2021/12/26 11:29:55;;;;;;;6.30;4.97;;;10.10;99.90;;;;;;5074244;28;20274;-57
2021/12/26 11:32:26;;;;;;;5.77;4.53;;;10.10;99.90;;;;;;5074038;28;20212;-54
2021/12/26 11:34:55;;;;;;;4.37;3.87;;;10.00;99.90;;;;;;5074487;28;20300;-54
2021/12/26 11:37:24;;;;;;;4.97;3.87;;;10.00;99.90;;;;;;5074054;28;20271;-55
2021/12/26 11:39:52;;;;;;;5.03;3.90;;;10.10;99.90;;;;;;5074529;28;20243;-56
2021/12/26 11:42:42;;;;;;;4.00;3.50;;;10.10;99.90;;;;;;5073716;28;20558;-56
2021/12/26 11:45:17;;;;;;;3.87;3.47;;;10.00;99.90;;;;;;5053011;28;20680;-56
2021/12/26 11:48:11;;;;;;;5.80;4.03;;;9.90;99.90;;;;;;5073854;28;20219;-56
2021/12/26 11:50:54;;;;;;;5.00;4.27;;;9.80;99.90;;;;;;5073735;28;20595;-56
2021/12/26 11:53:47;;;;;;;5.10;3.83;;;9.80;99.90;;;;;;5073481;28;20225;-56
2021/12/26 11:56:21;;;;;;;4.43;3.37;;;10.00;99.90;;;;;;5073141;28;20633;-56
2021/12/26 11:59:06;;;;;;;4.80;3.40;;;9.90;99.90;;;;;;5073590;28;20209;-56
2021/12/26 12:01:34;;;;;;;3.90;3.50;;;9.90;99.90;;;;;;5073477;28;20250;-56
2021/12/26 12:04:17;;;;;;;4.17;3.40;;;9.90;99.90;;;;;;5073802;28;20209;-56
2021/12/26 12:06:45;;;;;;;4.17;3.27;;;9.90;99.90;;;;;;5073770;28;20228;-56
2021/12/26 12:09:30;;;;;;;6.83;3.60;;;10.00;99.90;;;;;;5073980;28;20662;-56
2021/12/26 12:11:59;;;;;;;5.20;4.00;;;10.00;99.90;;;;;;5073830;28;20219;-57
2021/12/26 12:14:52;;;;;;;4.03;3.63;;;10.10;99.90;;;;;;5073954;28;20260;-57
2021/12/26 12:17:23;;;;;;;7.30;5.27;;;10.20;99.90;;;;;;5073585;28;20315;-57
2021/12/26 12:20:16;;;;;;;4.80;3.77;;;10.30;99.90;;;;;;5073474;28;20691;-56
2021/12/26 12:23:13;;;;;;;4.67;3.70;;;10.40;99.90;;;;;;5073376;28;20370;-57
2021/12/26 12:25:49;;;;;;;3.30;2.87;;;10.60;99.90;;;;;;5073175;28;20285;-56
2021/12/26 12:28:18;;;;;;;3.57;3.00;;;10.70;99.90;;;;;;5073603;28;20308;-56
2021/12/26 12:30:48;;;;;;;7.17;3.37;;;10.60;99.90;;;;;;5073199;28;20216;-56
2021/12/26 12:33:18;;;;;;;4.03;3.47;;;10.50;99.90;;;;;;5072872;28;20235;-57
2021/12/26 12:35:50;;;;;;;4.53;3.53;;;10.60;99.90;;;;;;5073277;28;20229;-58
2021/12/26 12:38:45;;;;;;;4.50;3.40;;;10.40;99.90;;;;;;5073377;28;20574;-57
2021/12/26 12:41:39;;;;;;;3.30;3.00;;;10.40;99.90;;;;;;5027065;28;20715;-54
2021/12/26 12:44:09;;;;;;;3.70;3.17;;;10.40;99.90;;;;;;5073236;28;20207;-56
2021/12/26 12:46:55;;;;;;;3.33;3.03;;;10.50;99.90;;;;;;5073507;28;20779;-58
2021/12/26 12:49:41;;;;;;;3.73;3.30;;;10.50;99.90;;;;;;5072983;28;20668;-56
2021/12/26 12:52:09;;;;;;;6.07;4.37;;;10.50;99.90;;;;;;5073516;28;20200;-56
2021/12/26 12:54:35;;;;;;;5.47;3.97;;;10.40;99.90;;;;;;5073536;28;20225;-56
2021/12/26 12:57:05;;;;;;;3.60;2.90;;;10.40;99.90;;;;;;5073149;28;20231;-56
2021/12/26 12:59:43;;;;;;;3.37;2.90;;;10.30;99.90;;;;;;5073109;28;20669;-55
2021/12/26 13:02:24;;;;;;;4.60;3.03;;;10.30;99.90;;;;;;5072392;28;20212;-56
2021/12/26 13:04:51;;;;;;;3.07;2.77;;;10.20;99.90;;;;;;5073340;28;20656;-56
2021/12/26 13:07:21;;;;;;;4.67;2.97;;;10.10;99.90;;;;;;5073361;28;20224;-56